Time;durP1;ratioP1;P1;durP2;ratioP2;P2;SDS_P1;SDS_P2;PMS_P1;PMS_P2;Temp;Humidity;BMP_temperature;BMP_pressure;BME280_temperature;BME280_humidity;BME280_pressure;Samples;Min_cycle;Max_cycle;Signal;HPM_P1;HPM_P2
2023/08/01 00:01:53;;;;;;;7.50;6.30;;;;;;;19.97;75.79;98857.65;106713;1262;72679;-38
2023/08/01 00:04:21;;;;;;;8.60;6.50;;;;;;;19.99;75.93;98859.25;106725;1262;60125;-39
2023/08/01 00:06:49;;;;;;;8.30;6.20;;;;;;;19.98;76.06;98859.04;106755;1262;60404;-39
2023/08/01 00:09:16;;;;;;;8.80;7.30;;;;;;;19.96;76.09;98859.48;106824;1262;72429;-39
2023/08/01 00:11:44;;;;;;;7.90;6.50;;;;;;;19.93;75.98;98858.14;106833;1262;67608;-39
2023/08/01 00:14:11;;;;;;;7.80;7.10;;;;;;;19.93;75.79;98860.04;106792;1263;72721;-39
2023/08/01 00:16:39;;;;;;;14.00;7.30;;;;;;;19.96;75.52;98856.98;106715;1262;59375;-39
2023/08/01 00:19:07;;;;;;;10.30;6.80;;;;;;;19.94;75.79;98858.58;106829;1262;59505;-38
2023/08/01 00:21:35;;;;;;;9.80;6.90;;;;;;;19.90;75.93;98860.10;106829;1262;71075;-38
2023/08/01 00:24:03;;;;;;;6.90;6.20;;;;;;;19.85;76.26;98861.48;106810;1263;67659;-38
2023/08/01 00:26:31;;;;;;;6.60;5.70;;;;;;;19.86;76.22;98862.05;106857;1262;73091;-39
2023/08/01 00:28:58;;;;;;;8.30;5.40;;;;;;;19.88;76.18;98860.88;106793;1262;60089;-38
2023/08/01 00:31:26;;;;;;;7.70;5.80;;;;;;;19.87;76.03;98859.41;106802;1262;60040;-39
2023/08/01 00:33:53;;;;;;;9.70;6.30;;;;;;;19.85;76.13;98857.34;106730;1262;73104;-39
2023/08/01 00:36:21;;;;;;;7.10;5.60;;;;;;;19.83;76.18;98855.36;106700;1263;68354;-39
2023/08/01 00:38:48;;;;;;;5.80;5.00;;;;;;;19.84;76.23;98848.96;106710;1266;72726;-39
2023/08/01 00:41:16;;;;;;;8.00;5.80;;;;;;;19.87;76.15;98849.35;106822;1262;59358;-39
2023/08/01 00:43:44;;;;;;;5.70;5.00;;;;;;;19.87;76.24;98851.31;106702;1262;59555;-39
2023/08/01 00:46:11;;;;;;;8.00;5.50;;;;;;;19.85;76.18;98846.55;106652;1262;73035;-39
2023/08/01 00:48:39;;;;;;;4.80;4.40;;;;;;;19.84;76.14;98843.87;106826;1262;66803;-39
2023/08/01 00:51:07;;;;;;;4.70;4.30;;;;;;;19.84;76.05;98840.86;106769;1262;72465;-39
2023/08/01 00:53:34;;;;;;;5.90;4.80;;;;;;;19.86;75.88;98841.75;106776;1264;59477;-38
2023/08/01 00:56:04;;;;;;;6.60;4.80;;;;;;;19.84;75.80;98842.83;106792;1262;59581;-39
2023/08/01 00:58:31;;;;;;;5.70;4.40;;;;;;;19.81;76.14;98842.42;106915;1259;73058;-39
2023/08/01 01:00:59;;;;;;;9.30;4.20;;;;;;;19.79;75.91;98841.33;106937;1259;67921;-39
2023/08/01 01:03:27;;;;;;;4.30;3.90;;;;;;;19.78;75.84;98841.96;106957;1259;72679;-38
2023/08/01 01:06:15;;;;;;;6.60;3.90;;;;;;;19.79;75.84;98843.52;107034;1259;60141;-38
2023/08/01 01:08:44;;;;;;;6.40;4.30;;;;;;;19.77;75.98;98840.11;107073;1259;59544;-39
2023/08/01 01:11:11;;;;;;;4.80;4.20;;;;;;;19.73;75.90;98837.63;106874;1259;73093;-39
2023/08/01 01:13:40;;;;;;;7.10;3.80;;;;;;;19.70;75.91;98837.21;106993;1258;66630;-38
2023/08/01 01:16:07;;;;;;;4.80;3.90;;;;;;;19.71;75.56;98838.14;106976;1264;72689;-38
2023/08/01 01:18:35;;;;;;;4.10;3.70;;;;;;;19.73;75.31;98839.42;106979;1259;60324;-39
2023/08/01 01:21:03;;;;;;;7.90;4.00;;;;;;;19.71;74.99;98840.50;106924;1259;60462;-38
2023/08/01 01:23:30;;;;;;;7.60;4.60;;;;;;;19.65;74.87;98838.62;107005;1259;74338;-38
2023/08/01 01:25:58;;;;;;;11.50;4.70;;;;;;;19.59;75.05;98835.47;106955;1259;66744;-39
2023/08/01 01:28:25;;;;;;;4.70;4.20;;;;;;;19.53;75.60;98837.41;106761;1264;71438;-39
2023/08/01 01:30:53;;;;;;;6.00;4.50;;;;;;;19.53;75.88;98837.75;106877;1258;61735;-39
2023/08/01 01:33:21;;;;;;;7.60;4.80;;;;;;;19.57;75.65;98835.30;106997;1259;60284;-39
2023/08/01 01:35:48;;;;;;;5.70;5.20;;;;;;;19.54;75.38;98838.66;106954;1259;72785;-39
2023/08/01 01:38:16;;;;;;;9.10;5.00;;;;;;;19.49;75.34;98834.95;106928;1259;67607;-39
2023/08/01 01:40:43;;;;;;;8.00;4.50;;;;;;;19.46;75.18;98833.14;106935;1259;72688;-39
2023/08/01 01:43:11;;;;;;;6.60;4.40;;;;;;;19.42;75.35;98831.00;106968;1259;60878;-38
2023/08/01 01:45:38;;;;;;;5.90;4.00;;;;;;;19.42;75.36;98830.30;106990;1259;59980;-39
2023/08/01 01:48:06;;;;;;;6.30;4.20;;;;;;;19.44;75.36;98829.18;106993;1257;75206;-39
2023/08/01 01:50:34;;;;;;;5.80;4.40;;;;;;;19.46;75.39;98832.59;107016;1259;66693;-39
2023/08/01 01:53:01;;;;;;;5.70;4.00;;;;;;;19.44;75.41;98830.98;107008;1259;72694;-38
2023/08/01 01:55:29;;;;;;;6.80;4.20;;;;;;;19.41;75.34;98823.40;106932;1259;61692;-39
2023/08/01 01:57:58;;;;;;;7.80;4.60;;;;;;;19.40;75.47;98826.80;107017;1259;60306;-38
2023/08/01 02:00:25;;;;;;;5.30;4.30;;;;;;;19.42;75.35;98830.70;107001;1259;72582;-39
2023/08/01 02:02:53;;;;;;;4.50;3.70;;;;;;;19.43;75.44;98832.56;107003;1257;66966;-38
2023/08/01 02:05:20;;;;;;;12.40;3.30;;;;;;;19.41;75.82;98828.98;107002;1259;72727;-38
2023/08/01 02:07:48;;;;;;;6.50;4.20;;;;;;;19.39;76.09;98830.63;107022;1263;61707;-39
2023/08/01 02:10:15;;;;;;;5.30;3.30;;;;;;;19.38;75.97;98827.95;106999;1259;60538;-39
2023/08/01 02:12:43;;;;;;;7.90;3.10;;;;;;;19.38;75.70;98831.50;106951;1259;72209;-39
2023/08/01 02:15:10;;;;;;;8.70;2.60;;;;;;;19.36;75.63;98833.69;106993;1263;66758;-39
2023/08/01 02:17:39;;;;;;;12.40;2.80;;;;;;;19.30;76.27;98832.02;106975;1259;72659;-39
2023/08/01 02:20:07;;;;;;;3.10;2.80;;;;;;;19.23;76.73;98832.88;107087;1259;61712;-38
2023/08/01 02:22:35;;;;;;;2.50;2.30;;;;;;;19.23;76.61;98827.39;107248;1254;60304;-38
2023/08/01 02:25:03;;;;;;;2.60;2.40;;;;;;;19.25;76.68;98820.66;107228;1256;72650;-38
2023/08/01 02:27:30;;;;;;;2.60;2.40;;;;;;;19.26;76.80;98821.66;107332;1260;67611;-38
2023/08/01 02:29:58;;;;;;;4.00;2.70;;;;;;;19.26;76.75;98819.23;107274;1254;72682;-38
2023/08/01 02:32:26;;;;;;;3.00;2.30;;;;;;;19.24;76.82;98823.05;107255;1256;61687;-38
2023/08/01 02:34:54;;;;;;;4.00;2.80;;;;;;;19.26;76.78;98822.92;107264;1255;60442;-39
2023/08/01 02:37:22;;;;;;;5.20;2.80;;;;;;;19.30;76.58;98827.86;107262;1260;73880;-39
2023/08/01 02:39:49;;;;;;;5.60;2.60;;;;;;;19.30;76.63;98829.67;107344;1256;67597;-39
2023/08/01 02:42:17;;;;;;;2.80;2.60;;;;;;;19.28;77.01;98830.88;107272;1256;71426;-38
2023/08/01 02:44:44;;;;;;;3.20;2.90;;;;;;;19.25;77.38;98831.83;107265;1256;60512;-38
2023/08/01 02:47:12;;;;;;;3.10;2.90;;;;;;;19.28;77.37;98830.48;107260;1256;60306;-39
2023/08/01 02:49:39;;;;;;;7.80;2.90;;;;;;;19.31;77.23;98831.98;107319;1254;73893;-39
2023/08/01 02:52:07;;;;;;;3.70;3.40;;;;;;;19.32;77.01;98835.11;107334;1260;67592;-39
2023/08/01 02:54:34;;;;;;;7.10;3.40;;;;;;;19.31;77.01;98836.08;107317;1256;71697;-38
2023/08/01 02:57:02;;;;;;;3.20;3.00;;;;;;;19.30;77.09;98837.67;107289;1257;60443;-38
2023/08/01 02:59:32;;;;;;;3.00;2.70;;;;;;;19.33;77.10;98834.30;107293;1260;60336;-38
2023/08/01 03:02:01;;;;;;;3.60;3.20;;;;;;;19.38;76.93;98837.70;107245;1256;72566;-39
2023/08/01 03:04:29;;;;;;;9.80;3.30;;;;;;;19.42;76.97;98840.91;107292;1260;66836;-39
2023/08/01 03:07:12;;;;;;;19.70;2.70;;;;;;;19.40;76.64;98840.97;107274;1256;72550;-39
2023/08/01 03:09:42;;;;;;;4.00;2.50;;;;;;;19.34;76.43;98836.07;107307;1256;60466;-38
2023/08/01 03:12:10;;;;;;;9.10;2.50;;;;;;;19.31;76.37;98834.27;107291;1256;61198;-38
2023/08/01 03:14:38;;;;;;;7.40;1.90;;;;;;;19.25;76.25;98833.47;107296;1260;73882;-39
2023/08/01 03:17:08;;;;;;;6.30;2.10;;;;;;;19.19;76.37;98836.20;107320;1259;66312;-38
2023/08/01 03:19:36;;;;;;;5.40;2.40;;;;;;;19.13;76.58;98840.98;107291;1256;72541;-39
2023/08/01 03:22:04;;;;;;;5.70;1.70;;;;;;;19.08;76.72;98841.25;107306;1256;61683;-38
2023/08/01 03:24:31;;;;;;;2.20;1.60;;;;;;;19.02;76.42;98840.23;107241;1260;59590;-39
2023/08/01 03:27:00;;;;;;;2.40;1.70;;;;;;;18.98;76.42;98838.20;107287;1254;72714;-38
2023/08/01 03:29:28;;;;;;;1.90;1.80;;;;;;;18.96;76.77;98839.59;107336;1256;66320;-38
2023/08/01 03:31:56;;;;;;;3.40;1.70;;;;;;;18.94;77.19;98841.22;107304;1259;72675;-39
2023/08/01 03:34:24;;;;;;;1.80;1.50;;;;;;;18.93;77.47;98840.66;107354;1257;61732;-38
2023/08/01 03:36:51;;;;;;;1.50;1.40;;;;;;;18.95;77.47;98842.67;107262;1255;60502;-38
2023/08/01 03:39:20;;;;;;;2.60;1.40;;;;;;;18.98;77.42;98850.05;107315;1254;72583;-38
2023/08/01 03:41:48;;;;;;;1.60;1.50;;;;;;;18.93;77.43;98851.41;107283;1260;67567;-38
2023/08/01 03:44:17;;;;;;;4.00;1.80;;;;;;;18.86;77.56;98857.15;107282;1254;71749;-38
2023/08/01 03:46:45;;;;;;;4.20;2.20;;;;;;;18.76;77.75;98859.66;107218;1257;61719;-39
2023/08/01 03:49:14;;;;;;;2.70;2.50;;;;;;;18.70;77.79;98853.13;107319;1259;60290;-38
2023/08/01 03:51:41;;;;;;;3.20;2.90;;;;;;;18.67;77.97;98854.67;107198;1256;73031;-39
2023/08/01 03:54:09;;;;;;;4.20;3.90;;;;;;;18.68;78.00;98853.02;107271;1260;66799;-38
2023/08/01 03:56:43;;;;;;;5.70;3.80;;;;;;;18.65;77.83;98856.37;107287;1256;72706;-38
2023/08/01 03:59:15;;;;;;;3.90;3.60;;;;;;;18.59;78.11;98853.83;107376;1256;60421;-38
2023/08/01 04:01:42;;;;;;;3.90;3.60;;;;;;;18.61;78.52;98853.85;107247;1260;60400;-38
2023/08/01 04:04:10;;;;;;;4.40;4.00;;;;;;;18.69;78.90;98851.91;107296;1254;72516;-38
2023/08/01 04:06:38;;;;;;;5.20;4.70;;;;;;;18.75;79.09;98853.95;107327;1256;65813;-38
2023/08/01 04:09:06;;;;;;;5.40;4.90;;;;;;;18.82;79.15;98857.33;107330;1256;72683;-38
2023/08/01 04:11:34;;;;;;;6.00;5.50;;;;;;;18.87;79.72;98857.21;107358;1259;61701;-39
2023/08/01 04:14:02;;;;;;;6.70;6.10;;;;;;;18.93;79.76;98856.92;107359;1259;60404;-39
2023/08/01 04:16:29;;;;;;;7.60;6.00;;;;;;;19.02;79.75;98859.85;107273;1254;72516;-39
2023/08/01 04:18:57;;;;;;;7.20;6.60;;;;;;;19.10;79.76;98855.96;107318;1259;67604;-38
2023/08/01 04:21:25;;;;;;;8.00;6.70;;;;;;;19.14;79.90;98852.44;107241;1258;72663;-39
2023/08/01 04:23:52;;;;;;;7.10;6.30;;;;;;;19.19;80.19;98851.86;107278;1260;61734;-39
2023/08/01 04:26:20;;;;;;;7.10;6.00;;;;;;;19.28;79.89;98851.16;107185;1256;60253;-39
2023/08/01 04:28:47;;;;;;;7.60;6.10;;;;;;;19.36;79.93;98852.53;107249;1259;72637;-39
2023/08/01 04:31:15;;;;;;;7.50;6.70;;;;;;;19.41;80.15;98856.16;107166;1255;68410;-39
2023/08/01 04:33:43;;;;;;;7.10;6.50;;;;;;;19.48;80.27;98858.44;107180;1256;72699;-39
2023/08/01 04:36:11;;;;;;;5.80;5.30;;;;;;;19.59;80.21;98861.55;109111;1255;61771;-40
2023/08/01 04:38:38;;;;;;;6.90;5.40;;;;;;;19.71;80.35;98868.23;108706;1256;60100;-39
2023/08/01 04:41:06;;;;;;;6.10;5.60;;;;;;;19.81;80.11;98866.96;107277;1260;73894;-40
2023/08/01 04:43:34;;;;;;;6.60;6.00;;;;;;;19.86;80.04;98867.93;107326;1259;67618;-40
2023/08/01 04:46:01;;;;;;;6.10;5.60;;;;;;;19.86;80.13;98865.55;107358;1257;73156;-39
2023/08/01 04:48:29;;;;;;;6.00;5.20;;;;;;;19.87;80.21;98863.88;107389;1258;61757;-39
2023/08/01 04:50:56;;;;;;;5.60;5.10;;;;;;;19.94;80.12;98870.39;107327;1256;60335;-39
2023/08/01 04:53:24;;;;;;;5.50;5.10;;;;;;;20.01;80.32;98870.36;107315;1261;73862;-39
2023/08/01 04:55:51;;;;;;;6.30;5.70;;;;;;;20.08;80.27;98871.09;107380;1255;66810;-40
2023/08/01 04:58:19;;;;;;;6.90;5.70;;;;;;;20.12;80.02;98868.85;107337;1254;71397;-40
2023/08/01 05:00:47;;;;;;;6.10;5.50;;;;;;;20.17;79.98;98870.30;107299;1254;62154;-40
2023/08/01 05:03:14;;;;;;;7.00;6.30;;;;;;;20.23;80.41;98868.72;107319;1254;60511;-40
2023/08/01 05:05:42;;;;;;;7.20;6.60;;;;;;;20.34;80.32;98870.31;107309;1259;73929;-40
2023/08/01 05:08:10;;;;;;;6.70;6.10;;;;;;;20.44;80.18;98871.29;107255;1259;67635;-40
2023/08/01 05:10:38;;;;;;;8.20;6.00;;;;;;;20.54;79.77;98865.73;107145;1259;74639;-39
2023/08/01 05:13:06;;;;;;;7.60;5.60;;;;;;;20.67;79.33;98857.34;107133;1258;60477;-40
2023/08/01 05:15:34;;;;;;;5.80;5.30;;;;;;;20.76;78.13;98859.33;107238;1258;60396;-39
2023/08/01 05:18:02;;;;;;;6.60;6.00;;;;;;;20.78;77.87;98861.02;107237;1256;74873;-39
2023/08/01 05:20:31;;;;;;;6.90;6.20;;;;;;;20.82;78.18;98861.34;107269;1256;67901;-39
2023/08/01 05:22:59;;;;;;;10.80;5.50;;;;;;;20.85;78.42;98861.67;107248;1257;71546;-39
2023/08/01 05:25:26;;;;;;;6.10;5.50;;;;;;;20.91;78.32;98855.88;107283;1260;61673;-39
2023/08/01 05:27:54;;;;;;;6.60;5.00;;;;;;;20.99;78.06;98854.77;107232;1257;59218;-39
2023/08/01 05:30:21;;;;;;;6.90;6.30;;;;;;;21.09;77.77;98858.63;107241;1255;73914;-39
2023/08/01 05:32:49;;;;;;;7.40;6.80;;;;;;;21.16;77.56;98853.39;107232;1260;65329;-39
2023/08/01 05:35:17;;;;;;;7.90;7.00;;;;;;;21.22;77.80;98858.63;107184;1260;72704;-39
2023/08/01 05:37:45;;;;;;;6.50;5.90;;;;;;;21.31;77.42;98859.91;107261;1260;61703;-39
2023/08/01 05:40:12;;;;;;;8.80;7.40;;;;;;;21.39;75.81;98857.91;107269;1260;60054;-39
2023/08/01 05:42:40;;;;;;;8.70;7.90;;;;;;;21.43;75.66;98857.37;107189;1256;73861;-39
2023/08/01 05:45:08;;;;;;;8.20;7.40;;;;;;;21.49;75.61;98857.58;107219;1255;66307;-39
2023/08/01 05:47:36;;;;;;;8.30;7.30;;;;;;;21.53;74.25;98856.67;107234;1254;72707;-39
2023/08/01 05:50:05;;;;;;;9.20;8.30;;;;;;;21.58;74.44;98855.23;107395;1257;61687;-39
2023/08/01 05:52:33;;;;;;;9.00;8.20;;;;;;;21.68;74.84;98858.44;107320;1255;60327;-40
2023/08/01 05:55:01;;;;;;;9.20;8.40;;;;;;;21.76;74.56;98862.65;107152;1259;73870;-40
2023/08/01 05:57:29;;;;;;;7.90;7.10;;;;;;;21.82;74.29;98858.98;107288;1254;66275;-40
2023/08/01 05:59:56;;;;;;;7.30;6.60;;;;;;;21.87;73.49;98858.16;107325;1257;71136;-40
2023/08/01 06:02:24;;;;;;;8.10;6.40;;;;;;;21.93;73.22;98857.90;107189;1258;60747;-40
2023/08/01 06:04:51;;;;;;;7.90;5.80;;;;;;;22.03;73.16;98857.23;107256;1260;60451;-40
2023/08/01 06:07:22;;;;;;;6.70;6.10;;;;;;;22.11;72.59;98855.52;107282;1259;73849;-40
2023/08/01 06:09:53;;;;;;;6.50;5.90;;;;;;;22.16;72.51;98858.05;107326;1259;68043;-39
2023/08/01 06:12:21;;;;;;;6.70;4.80;;;;;;;22.19;72.37;98855.41;107268;1260;72700;-39
2023/08/01 06:14:49;;;;;;;5.90;4.80;;;;;;;22.26;71.33;98859.27;107330;1254;60747;-40
2023/08/01 06:17:17;;;;;;;5.50;5.00;;;;;;;22.37;71.43;98859.40;107259;1255;60108;-40
2023/08/01 06:19:45;;;;;;;5.80;4.40;;;;;;;22.43;71.12;98858.30;107309;1257;73061;-39
2023/08/01 06:22:12;;;;;;;4.70;3.60;;;;;;;22.46;70.77;98859.85;107288;1257;66753;-40
2023/08/01 06:24:40;;;;;;;7.40;4.30;;;;;;;22.49;70.68;98860.85;107316;1257;73137;-39
2023/08/01 06:27:08;;;;;;;5.50;4.70;;;;;;;22.59;71.01;98860.02;107369;1254;63812;-40
2023/08/01 06:29:38;;;;;;;22.00;6.10;;;;;;;22.75;70.50;98858.95;107317;1260;60844;-40
2023/08/01 06:32:06;;;;;;;16.20;4.10;;;;;;;22.86;70.34;98856.38;107258;1254;73847;-40
2023/08/01 06:34:34;;;;;;;3.70;3.20;;;;;;;22.98;69.46;98857.19;107268;1259;66611;-40
2023/08/01 06:37:03;;;;;;;8.00;3.70;;;;;;;23.08;67.77;98855.68;107330;1260;71369;-40
2023/08/01 06:39:31;;;;;;;12.10;4.40;;;;;;;23.14;67.05;98858.19;107299;1260;60236;-40
2023/08/01 06:41:59;;;;;;;9.60;4.10;;;;;;;23.19;65.80;98858.64;107119;1261;60317;-39
2023/08/01 06:44:30;;;;;;;5.00;3.10;;;;;;;23.21;64.01;98864.33;107368;1254;72603;-39
2023/08/01 06:47:00;;;;;;;6.80;3.40;;;;;;;23.19;63.15;98864.67;107275;1260;70125;-40
2023/08/01 06:49:28;;;;;;;3.60;3.10;;;;;;;23.15;63.91;98860.60;107252;1258;72455;-41
2023/08/01 06:51:55;;;;;;;9.40;4.10;;;;;;;23.24;64.75;98864.27;107117;1257;61347;-40
2023/08/01 06:54:23;;;;;;;9.90;3.90;;;;;;;23.38;64.63;98866.41;107208;1260;60298;-40
2023/08/01 06:56:51;;;;;;;3.00;2.70;;;;;;;23.49;63.91;98864.40;107130;1258;73931;-40
2023/08/01 06:59:18;;;;;;;14.20;4.40;;;;;;;23.59;63.65;98862.69;107215;1257;68056;-40
2023/08/01 07:01:46;;;;;;;3.60;3.20;;;;;;;23.70;63.97;98856.13;107244;1258;71428;-40
2023/08/01 07:04:14;;;;;;;4.60;3.40;;;;;;;23.79;63.59;98854.96;107246;1260;60506;-40
2023/08/01 07:06:41;;;;;;;3.60;3.30;;;;;;;23.86;63.23;98854.13;107152;1257;60456;-40
2023/08/01 07:09:10;;;;;;;3.50;3.20;;;;;;;23.89;60.86;98852.31;107361;1257;72796;-40
2023/08/01 07:11:38;;;;;;;3.50;3.20;;;;;;;23.89;60.85;98849.23;107209;1258;67682;-40
2023/08/01 07:14:06;;;;;;;3.60;3.10;;;;;;;23.90;61.09;98844.28;107283;1257;72724;-40
2023/08/01 07:16:33;;;;;;;3.30;2.90;;;;;;;23.95;61.23;98844.16;107216;1257;60439;-40
2023/08/01 07:19:01;;;;;;;3.60;3.20;;;;;;;23.99;61.32;98844.62;107164;1260;60381;-40
2023/08/01 07:21:29;;;;;;;3.40;3.10;;;;;;;24.07;61.58;98846.40;107219;1258;73851;-40
2023/08/01 07:23:57;;;;;;;3.30;3.00;;;;;;;24.15;60.53;98846.35;107257;1260;67911;-40
2023/08/01 07:26:25;;;;;;;4.30;2.90;;;;;;;24.22;59.81;98849.86;107219;1257;72656;-40
2023/08/01 07:28:52;;;;;;;2.80;2.60;;;;;;;24.26;59.23;98849.52;107245;1257;60419;-40
2023/08/01 07:31:20;;;;;;;3.20;2.90;;;;;;;24.28;59.13;98850.08;107216;1256;60288;-40
2023/08/01 07:33:47;;;;;;;3.90;3.10;;;;;;;24.30;58.54;98848.01;107262;1258;72583;-40
2023/08/01 07:36:15;;;;;;;3.30;3.00;;;;;;;24.34;58.64;98848.00;107159;1260;67680;-40
2023/08/01 07:38:43;;;;;;;5.50;3.30;;;;;;;24.40;59.21;98843.77;107254;1254;72704;-40
2023/08/01 07:41:10;;;;;;;4.20;3.30;;;;;;;24.49;60.37;98846.92;107353;1254;60465;-39
2023/08/01 07:43:38;;;;;;;4.10;3.20;;;;;;;24.59;58.86;98848.02;107292;1261;60278;-38
2023/08/01 07:46:05;;;;;;;3.90;3.00;;;;;;;24.63;58.57;98848.08;107312;1260;73896;-39
2023/08/01 07:48:33;;;;;;;3.70;2.80;;;;;;;24.67;58.54;98848.84;107280;1254;67595;-39
2023/08/01 07:51:01;;;;;;;3.20;2.90;;;;;;;24.75;58.96;98851.89;107195;1257;71445;-39
2023/08/01 07:53:28;;;;;;;4.00;3.00;;;;;;;24.83;58.49;98846.81;107312;1254;60403;-39
2023/08/01 07:55:56;;;;;;;3.40;3.10;;;;;;;24.92;56.67;98848.35;107182;1257;59237;-39
2023/08/01 07:58:23;;;;;;;4.00;2.70;;;;;;;24.97;56.67;98848.17;107277;1254;73859;-38
2023/08/01 08:00:51;;;;;;;3.10;2.80;;;;;;;25.03;56.05;98853.28;107268;1254;67894;-38
2023/08/01 08:03:22;;;;;;;3.30;2.80;;;;;;;25.10;55.70;98850.39;107259;1257;72787;-38
2023/08/01 08:05:50;;;;;;;6.00;2.70;;;;;;;25.18;54.18;98850.41;107310;1256;60592;-39
2023/08/01 08:08:17;;;;;;;6.20;3.00;;;;;;;25.24;54.41;98847.89;107215;1257;60397;-39
2023/08/01 08:10:45;;;;;;;2.90;2.60;;;;;;;25.32;54.24;98843.85;107288;1254;72686;-40
2023/08/01 08:13:12;;;;;;;3.70;2.80;;;;;;;25.37;54.02;98849.16;107287;1254;67602;-39
2023/08/01 08:15:40;;;;;;;3.70;2.60;;;;;;;25.39;54.20;98845.79;107300;1259;70975;-39
2023/08/01 08:18:08;;;;;;;2.40;2.20;;;;;;;25.47;54.14;98842.52;107419;1258;60134;-39
2023/08/01 08:20:44;;;;;;;2.70;2.40;;;;;;;25.61;53.26;98840.66;107130;1257;60527;-40
2023/08/01 08:23:13;;;;;;;2.80;2.60;;;;;;;25.76;52.53;98838.90;107155;1254;73175;-39
2023/08/01 08:25:42;;;;;;;2.50;2.30;;;;;;;25.90;52.06;98834.17;107238;1254;67941;-39
2023/08/01 08:28:11;;;;;;;3.30;2.40;;;;;;;26.06;51.64;98837.06;107244;1257;71455;-40
2023/08/01 08:30:39;;;;;;;2.70;2.20;;;;;;;26.17;51.31;98834.04;107303;1254;60518;-39
2023/08/01 08:33:07;;;;;;;3.30;2.20;;;;;;;26.28;51.16;98832.23;107275;1254;60318;-40
2023/08/01 08:35:37;;;;;;;2.50;2.10;;;;;;;26.35;50.51;98834.83;107307;1254;74199;-39
2023/08/01 08:38:05;;;;;;;2.40;2.20;;;;;;;26.48;49.25;98832.38;107212;1254;67933;-38
2023/08/01 08:40:33;;;;;;;2.50;2.30;;;;;;;26.61;49.39;98829.52;109087;1254;72781;-39
2023/08/01 08:43:03;;;;;;;2.50;2.30;;;;;;;26.75;49.74;98825.44;107595;1254;60463;-39
2023/08/01 08:45:34;;;;;;;3.30;2.30;;;;;;;26.91;49.65;98828.69;107181;1254;62342;-39
2023/08/01 08:48:05;;;;;;;4.20;2.60;;;;;;;27.06;49.09;98829.77;108041;1254;73947;-39
2023/08/01 08:50:33;;;;;;;2.80;2.30;;;;;;;27.18;49.16;98825.85;107258;1254;68700;-39
2023/08/01 08:53:00;;;;;;;3.70;2.20;;;;;;;27.25;48.18;98826.51;107356;1254;73202;-39
2023/08/01 08:55:29;;;;;;;2.40;2.20;;;;;;;27.34;48.36;98827.48;107297;1257;60422;-39
2023/08/01 08:57:56;;;;;;;3.00;2.60;;;;;;;27.46;48.83;98828.91;107252;1254;59241;-39
2023/08/01 09:00:24;;;;;;;2.70;2.50;;;;;;;27.54;49.41;98829.59;107205;1260;74111;-39
2023/08/01 09:02:51;;;;;;;2.70;2.50;;;;;;;27.58;49.68;98831.06;107233;1254;66687;-39
2023/08/01 09:05:19;;;;;;;4.80;2.50;;;;;;;27.53;49.61;98833.09;107246;1254;72697;-39
2023/08/01 09:07:47;;;;;;;4.90;2.70;;;;;;;27.43;49.92;98830.74;107064;1254;60723;-39
2023/08/01 09:10:15;;;;;;;3.20;2.40;;;;;;;27.33;49.55;98831.02;107208;1254;60578;-38
2023/08/01 09:12:42;;;;;;;3.70;2.50;;;;;;;27.27;50.09;98829.35;107259;1254;74501;-39
2023/08/01 09:15:10;;;;;;;2.60;2.40;;;;;;;27.28;49.88;98827.09;107244;1254;67765;-38
2023/08/01 09:17:50;;;;;;;4.00;2.70;;;;;;;27.34;49.94;98829.10;107138;1257;71188;-39
2023/08/01 09:20:18;;;;;;;9.50;8.50;;;;;;;27.48;49.71;98822.52;107259;1254;60394;-39
2023/08/01 09:22:47;;;;;;;4.30;3.00;;;;;;;27.59;48.51;98821.77;107186;1254;187297;-39
2023/08/01 09:27:02;;;;;;;4.20;3.20;;;;;;;27.71;48.14;98821.77;104127;1292;600911;-39
2023/08/01 09:29:32;;;;;;;2.90;2.60;;;;;;;27.82;47.79;98820.50;106633;1268;60083;-39
2023/08/01 09:32:00;;;;;;;2.90;2.60;;;;;;;27.93;47.18;98812.89;106950;1260;60132;-39
2023/08/01 09:34:28;;;;;;;4.00;2.70;;;;;;;28.06;47.30;98809.33;106978;1259;70967;-39
2023/08/01 09:36:59;;;;;;;2.80;2.60;;;;;;;28.20;46.84;98810.30;106988;1261;67564;-39
2023/08/01 09:39:27;;;;;;;2.50;2.30;;;;;;;28.32;45.46;98804.78;106887;1264;154207;-39
2023/08/01 09:41:58;;;;;;;2.60;2.40;;;;;;;28.39;45.70;98805.30;107177;1262;59148;-39
2023/08/01 09:44:27;;;;;;;2.50;2.30;;;;;;;28.47;45.17;98807.85;107207;1256;60085;-39
2023/08/01 09:46:59;;;;;;;2.80;2.40;;;;;;;28.53;45.40;98806.64;107174;1257;72245;-39
2023/08/01 09:49:27;;;;;;;5.00;2.70;;;;;;;28.60;45.56;98808.21;107249;1263;67981;-39
2023/08/01 09:51:55;;;;;;;3.10;2.60;;;;;;;28.71;45.56;98806.59;107203;1258;72702;-39
2023/08/01 09:54:23;;;;;;;4.10;2.60;;;;;;;28.86;45.78;98804.52;107229;1258;59621;-39
2023/08/01 09:56:52;;;;;;;3.00;2.50;;;;;;;28.99;45.25;98804.41;107198;1257;60098;-39
2023/08/01 09:59:24;;;;;;;2.50;2.30;;;;;;;29.02;45.28;98800.71;107227;1261;71786;-39
2023/08/01 10:01:53;;;;;;;3.50;2.60;;;;;;;28.98;44.52;98793.69;107180;1257;67576;-39
2023/08/01 10:04:24;;;;;;;2.50;2.30;;;;;;;28.90;44.33;98791.46;107141;1257;72674;-39
2023/08/01 10:06:55;;;;;;;2.70;2.50;;;;;;;28.84;43.52;98792.23;107182;1257;60100;-39
2023/08/01 10:09:22;;;;;;;3.20;2.50;;;;;;;28.77;43.98;98792.18;107119;1262;59696;-39
2023/08/01 10:11:53;;;;;;;2.80;2.60;;;;;;;28.77;44.40;98791.89;107177;1257;73501;-39
2023/08/01 10:14:21;;;;;;;5.20;2.40;;;;;;;28.79;43.74;98788.75;107113;1257;68240;-38
2023/08/01 10:16:49;;;;;;;2.80;2.50;;;;;;;28.70;44.29;98790.44;107274;1263;71450;-39
2023/08/01 10:19:17;;;;;;;3.80;2.80;;;;;;;28.67;45.36;98788.02;107159;1257;60080;-39
2023/08/01 10:21:46;;;;;;;2.50;2.30;;;;;;;28.76;46.02;98782.33;107314;1262;59600;-39
2023/08/01 10:24:14;;;;;;;2.60;2.00;;;;;;;28.97;45.20;98780.95;107272;1263;73114;-39
2023/08/01 10:26:41;;;;;;;2.70;2.50;;;;;;;29.21;45.40;98785.75;107063;1257;67867;-39
2023/08/01 10:29:09;;;;;;;2.50;2.30;;;;;;;29.43;44.69;98785.21;106915;1258;72687;-40
2023/08/01 10:31:37;;;;;;;2.80;2.50;;;;;;;29.63;44.51;98784.38;107147;1256;59595;-40
2023/08/01 10:34:06;;;;;;;2.60;2.30;;;;;;;29.85;44.87;98779.52;107203;1260;60008;-39
2023/08/01 10:36:34;;;;;;;2.40;2.10;;;;;;;30.12;44.40;98775.98;107174;1262;73054;-40
2023/08/01 10:39:02;;;;;;;2.90;2.40;;;;;;;30.40;43.00;98772.75;107064;1258;67753;-39
2023/08/01 10:41:34;;;;;;;2.70;2.40;;;;;;;30.67;42.48;98773.87;107127;1258;71886;-40
2023/08/01 10:44:15;;;;;;;2.30;2.10;;;;;;;30.81;42.73;98776.19;107251;1257;59422;-40
2023/08/01 10:46:56;;;;;;;2.80;2.30;;;;;;;30.78;42.27;98771.10;107189;1257;60919;-40
2023/08/01 10:49:40;;;;;;;2.60;2.40;;;;;;;30.54;41.98;98767.83;107236;1257;73060;-40
2023/08/01 10:52:23;;;;;;;3.00;2.70;;;;;;;30.23;42.06;98767.85;107137;1263;67794;-39
2023/08/01 10:55:02;;;;;;;2.50;2.30;;;;;;;29.93;42.54;98767.77;107188;1257;73381;-40
2023/08/01 10:57:39;;;;;;;3.40;2.50;;;;;;;29.73;43.23;98767.80;107205;1263;60103;-40
2023/08/01 11:00:09;;;;;;;2.50;2.30;;;;;;;29.54;44.73;98764.29;107106;1257;59177;-39
2023/08/01 11:02:37;;;;;;;2.20;2.00;;;;;;;29.37;45.22;98766.30;107064;1263;73076;-39
2023/08/01 11:05:06;;;;;;;2.50;2.30;;;;;;;29.33;44.43;98763.09;107147;1262;67907;-39
2023/08/01 11:07:34;;;;;;;2.60;2.40;;;;;;;29.42;44.01;98762.81;107229;1257;72667;-39
2023/08/01 11:10:07;;;;;;;2.40;2.20;;;;;;;29.51;43.21;98757.27;107195;1263;60548;-39
2023/08/01 11:12:39;;;;;;;2.50;2.30;;;;;;;29.55;43.39;98753.94;107238;1257;59589;-40
2023/08/01 11:15:09;;;;;;;3.50;2.70;;;;;;;29.62;43.60;98754.62;107138;1257;73371;-39
2023/08/01 11:17:37;;;;;;;;;;;;;;;29.73;42.69;98752.45;107225;1257;66986;-40
2023/08/01 11:20:07;;;;;;;2.50;2.30;;;;;;;29.81;42.67;98750.14;107130;1257;72724;-40
2023/08/01 11:22:35;;;;;;;2.50;2.30;;;;;;;29.97;42.22;98745.77;107194;1257;59624;-40
2023/08/01 11:25:03;;;;;;;3.50;2.40;;;;;;;30.19;41.68;98743.75;107196;1258;60522;-40
2023/08/01 11:27:31;;;;;;;2.30;2.10;;;;;;;30.47;41.13;98743.05;107264;1257;73060;-40
2023/08/01 11:29:58;;;;;;;2.40;2.20;;;;;;;30.74;41.08;98735.40;107227;1258;67578;-40
2023/08/01 11:32:34;;;;;;;3.20;2.40;;;;;;;30.98;40.23;98733.56;107222;1263;71815;-40